sensor_id;sensor_type;location;lat;lon;timestamp;P1;durP1;ratioP1;P2;durP2;ratioP2
3297;SDS011;1661;53.572;10.174;2023-08-30T00:01:21;5.27;;;4.90;;
3297;SDS011;1661;53.572;10.174;2023-08-30T00:03:48;5.83;;;5.33;;
3297;SDS011;1661;53.572;10.174;2023-08-30T00:06:15;5.10;;;4.70;;
3297;SDS011;1661;53.572;10.174;2023-08-30T00:08:42;6.60;;;5.03;;
3297;SDS011;1661;53.572;10.174;2023-08-30T00:11:10;5.13;;;4.73;;
3297;SDS011;1661;53.572;10.174;2023-08-30T00:13:37;4.90;;;4.57;;
3297;SDS011;1661;53.572;10.174;2023-08-30T00:16:03;6.83;;;5.23;;
3297;SDS011;1661;53.572;10.174;2023-08-30T00:18:30;3.73;;;3.43;;
3297;SDS011;1661;53.572;10.174;2023-08-30T00:20:57;3.63;;;3.37;;
3297;SDS011;1661;53.572;10.174;2023-08-30T00:23:24;3.97;;;3.60;;
3297;SDS011;1661;53.572;10.174;2023-08-30T00:25:51;3.80;;;3.50;;
3297;SDS011;1661;53.572;10.174;2023-08-30T00:28:19;3.60;;;2.83;;
3297;SDS011;1661;53.572;10.174;2023-08-30T00:30:46;4.47;;;4.07;;
3297;SDS011;1661;53.572;10.174;2023-08-30T00:33:12;3.80;;;3.50;;
3297;SDS011;1661;53.572;10.174;2023-08-30T00:35:39;3.43;;;3.13;;
3297;SDS011;1661;53.572;10.174;2023-08-30T00:38:06;4.67;;;3.53;;
3297;SDS011;1661;53.572;10.174;2023-08-30T00:40:37;3.97;;;3.57;;
3297;SDS011;1661;53.572;10.174;2023-08-30T00:43:05;5.27;;;3.53;;
3297;SDS011;1661;53.572;10.174;2023-08-30T00:45:33;3.20;;;3.00;;
3297;SDS011;1661;53.572;10.174;2023-08-30T00:48:04;3.90;;;3.60;;
3297;SDS011;1661;53.572;10.174;2023-08-30T00:50:32;4.20;;;3.90;;
3297;SDS011;1661;53.572;10.174;2023-08-30T00:52:59;3.87;;;3.50;;
3297;SDS011;1661;53.572;10.174;2023-08-30T00:55:30;3.70;;;3.40;;
3297;SDS011;1661;53.572;10.174;2023-08-30T00:57:58;3.53;;;3.33;;
3297;SDS011;1661;53.572;10.174;2023-08-30T01:00:25;5.40;;;3.90;;
3297;SDS011;1661;53.572;10.174;2023-08-30T01:02:54;2.90;;;2.70;;
3297;SDS011;1661;53.572;10.174;2023-08-30T01:05:21;9.13;;;3.70;;
3297;SDS011;1661;53.572;10.174;2023-08-30T01:07:48;4.13;;;3.40;;
3297;SDS011;1661;53.572;10.174;2023-08-30T01:10:16;4.43;;;4.13;;
3297;SDS011;1661;53.572;10.174;2023-08-30T01:12:44;4.00;;;3.70;;
3297;SDS011;1661;53.572;10.174;2023-08-30T01:15:15;5.87;;;4.80;;
3297;SDS011;1661;53.572;10.174;2023-08-30T01:17:45;3.17;;;2.97;;
3297;SDS011;1661;53.572;10.174;2023-08-30T01:20:16;6.93;;;4.60;;
3297;SDS011;1661;53.572;10.174;2023-08-30T01:22:47;4.53;;;3.63;;
3297;SDS011;1661;53.572;10.174;2023-08-30T01:25:26;4.20;;;3.80;;
3297;SDS011;1661;53.572;10.174;2023-08-30T01:28:01;4.13;;;3.70;;
3297;SDS011;1661;53.572;10.174;2023-08-30T01:30:30;3.57;;;3.00;;
3297;SDS011;1661;53.572;10.174;2023-08-30T01:32:59;4.80;;;4.40;;
3297;SDS011;1661;53.572;10.174;2023-08-30T01:35:27;3.97;;;3.77;;
3297;SDS011;1661;53.572;10.174;2023-08-30T01:37:57;6.20;;;4.10;;
3297;SDS011;1661;53.572;10.174;2023-08-30T01:40:26;5.70;;;3.60;;
3297;SDS011;1661;53.572;10.174;2023-08-30T01:42:54;4.10;;;3.80;;
3297;SDS011;1661;53.572;10.174;2023-08-30T01:45:23;5.13;;;3.80;;
3297;SDS011;1661;53.572;10.174;2023-08-30T01:47:51;4.50;;;4.03;;
3297;SDS011;1661;53.572;10.174;2023-08-30T01:50:19;3.90;;;3.60;;
3297;SDS011;1661;53.572;10.174;2023-08-30T01:52:46;4.23;;;3.93;;
3297;SDS011;1661;53.572;10.174;2023-08-30T01:55:14;4.37;;;4.07;;
3297;SDS011;1661;53.572;10.174;2023-08-30T01:57:44;4.93;;;4.50;;
3297;SDS011;1661;53.572;10.174;2023-08-30T02:00:11;4.50;;;4.00;;
3297;SDS011;1661;53.572;10.174;2023-08-30T02:02:40;4.53;;;4.23;;
3297;SDS011;1661;53.572;10.174;2023-08-30T02:05:07;4.10;;;3.80;;
3297;SDS011;1661;53.572;10.174;2023-08-30T02:07:35;3.87;;;3.57;;
3297;SDS011;1661;53.572;10.174;2023-08-30T02:10:06;9.47;;;4.87;;
3297;SDS011;1661;53.572;10.174;2023-08-30T02:12:37;4.40;;;4.10;;
3297;SDS011;1661;53.572;10.174;2023-08-30T02:15:07;4.50;;;4.10;;
3297;SDS011;1661;53.572;10.174;2023-08-30T02:17:36;7.90;;;4.03;;
3297;SDS011;1661;53.572;10.174;2023-08-30T02:20:06;4.33;;;4.00;;
3297;SDS011;1661;53.572;10.174;2023-08-30T02:22:33;6.40;;;4.60;;
3297;SDS011;1661;53.572;10.174;2023-08-30T02:25:00;4.07;;;3.67;;
3297;SDS011;1661;53.572;10.174;2023-08-30T02:27:29;4.40;;;4.00;;
3297;SDS011;1661;53.572;10.174;2023-08-30T02:29:56;4.63;;;4.17;;
3297;SDS011;1661;53.572;10.174;2023-08-30T02:32:23;10.73;;;5.47;;
3297;SDS011;1661;53.572;10.174;2023-08-30T02:34:50;5.10;;;4.10;;
3297;SDS011;1661;53.572;10.174;2023-08-30T02:37:19;9.80;;;6.10;;
3297;SDS011;1661;53.572;10.174;2023-08-30T02:39:46;5.50;;;5.10;;
3297;SDS011;1661;53.572;10.174;2023-08-30T02:42:13;7.00;;;6.50;;
3297;SDS011;1661;53.572;10.174;2023-08-30T02:44:40;6.50;;;5.87;;
3297;SDS011;1661;53.572;10.174;2023-08-30T02:47:07;6.13;;;5.53;;
3297;SDS011;1661;53.572;10.174;2023-08-30T02:49:34;5.43;;;4.93;;
3297;SDS011;1661;53.572;10.174;2023-08-30T02:52:01;5.47;;;5.07;;
3297;SDS011;1661;53.572;10.174;2023-08-30T02:54:29;6.43;;;5.30;;
3297;SDS011;1661;53.572;10.174;2023-08-30T02:56:56;5.70;;;5.20;;
3297;SDS011;1661;53.572;10.174;2023-08-30T02:59:23;6.60;;;6.10;;
3297;SDS011;1661;53.572;10.174;2023-08-30T03:01:49;5.67;;;5.17;;
3297;SDS011;1661;53.572;10.174;2023-08-30T03:04:16;5.57;;;5.07;;
3297;SDS011;1661;53.572;10.174;2023-08-30T03:06:43;5.07;;;4.47;;
3297;SDS011;1661;53.572;10.174;2023-08-30T03:09:10;6.00;;;5.53;;
3297;SDS011;1661;53.572;10.174;2023-08-30T03:11:38;6.43;;;5.13;;
3297;SDS011;1661;53.572;10.174;2023-08-30T03:14:04;5.57;;;5.07;;
3297;SDS011;1661;53.572;10.174;2023-08-30T03:16:31;5.50;;;5.10;;
3297;SDS011;1661;53.572;10.174;2023-08-30T03:18:58;6.70;;;6.00;;
3297;SDS011;1661;53.572;10.174;2023-08-30T03:21:25;5.97;;;5.30;;
3297;SDS011;1661;53.572;10.174;2023-08-30T03:23:52;4.70;;;4.40;;
3297;SDS011;1661;53.572;10.174;2023-08-30T03:26:19;5.70;;;5.03;;
3297;SDS011;1661;53.572;10.174;2023-08-30T03:28:47;6.67;;;6.07;;
3297;SDS011;1661;53.572;10.174;2023-08-30T03:31:14;8.87;;;5.80;;
3297;SDS011;1661;53.572;10.174;2023-08-30T03:33:41;6.93;;;6.27;;
3297;SDS011;1661;53.572;10.174;2023-08-30T03:36:09;6.03;;;5.17;;
3297;SDS011;1661;53.572;10.174;2023-08-30T03:38:37;7.50;;;5.30;;
3297;SDS011;1661;53.572;10.174;2023-08-30T03:41:04;5.57;;;5.07;;
3297;SDS011;1661;53.572;10.174;2023-08-30T03:43:31;5.90;;;5.20;;
3297;SDS011;1661;53.572;10.174;2023-08-30T03:46:00;6.53;;;5.27;;
3297;SDS011;1661;53.572;10.174;2023-08-30T03:48:28;5.50;;;5.00;;
3297;SDS011;1661;53.572;10.174;2023-08-30T03:50:55;6.40;;;5.90;;
3297;SDS011;1661;53.572;10.174;2023-08-30T03:53:23;6.17;;;5.40;;
3297;SDS011;1661;53.572;10.174;2023-08-30T03:55:50;6.17;;;5.67;;
3297;SDS011;1661;53.572;10.174;2023-08-30T03:58:17;6.03;;;5.47;;
3297;SDS011;1661;53.572;10.174;2023-08-30T04:00:45;6.50;;;5.83;;
3297;SDS011;1661;53.572;10.174;2023-08-30T04:03:14;10.00;;;6.57;;
3297;SDS011;1661;53.572;10.174;2023-08-30T04:05:41;7.70;;;7.00;;
3297;SDS011;1661;53.572;10.174;2023-08-30T04:08:09;9.83;;;8.83;;
3297;SDS011;1661;53.572;10.174;2023-08-30T04:10:36;6.63;;;6.10;;
3297;SDS011;1661;53.572;10.174;2023-08-30T04:13:03;10.40;;;6.40;;
3297;SDS011;1661;53.572;10.174;2023-08-30T04:15:32;8.87;;;7.80;;
3297;SDS011;1661;53.572;10.174;2023-08-30T04:17:59;7.17;;;6.57;;
3297;SDS011;1661;53.572;10.174;2023-08-30T04:20:28;7.93;;;7.00;;
3297;SDS011;1661;53.572;10.174;2023-08-30T04:22:54;6.80;;;6.17;;
3297;SDS011;1661;53.572;10.174;2023-08-30T04:25:21;7.93;;;7.20;;
3297;SDS011;1661;53.572;10.174;2023-08-30T04:27:48;8.77;;;7.50;;
3297;SDS011;1661;53.572;10.174;2023-08-30T04:30:15;7.60;;;6.73;;
3297;SDS011;1661;53.572;10.174;2023-08-30T04:32:42;11.47;;;7.93;;
3297;SDS011;1661;53.572;10.174;2023-08-30T04:35:09;21.37;;;8.50;;
3297;SDS011;1661;53.572;10.174;2023-08-30T04:37:38;9.00;;;6.97;;
3297;SDS011;1661;53.572;10.174;2023-08-30T04:40:05;13.13;;;9.43;;
3297;SDS011;1661;53.572;10.174;2023-08-30T04:42:33;8.20;;;7.50;;
3297;SDS011;1661;53.572;10.174;2023-08-30T04:45:00;10.40;;;9.30;;
3297;SDS011;1661;53.572;10.174;2023-08-30T04:47:28;14.93;;;10.07;;
3297;SDS011;1661;53.572;10.174;2023-08-30T04:49:55;10.97;;;9.87;;
3297;SDS011;1661;53.572;10.174;2023-08-30T04:52:22;10.00;;;9.20;;
3297;SDS011;1661;53.572;10.174;2023-08-30T04:54:50;12.40;;;10.97;;
3297;SDS011;1661;53.572;10.174;2023-08-30T04:57:17;16.33;;;10.60;;
3297;SDS011;1661;53.572;10.174;2023-08-30T04:59:44;14.23;;;12.10;;
3297;SDS011;1661;53.572;10.174;2023-08-30T05:02:11;13.60;;;12.20;;
3297;SDS011;1661;53.572;10.174;2023-08-30T05:04:38;12.97;;;11.43;;
3297;SDS011;1661;53.572;10.174;2023-08-30T05:07:05;13.87;;;10.80;;
3297;SDS011;1661;53.572;10.174;2023-08-30T05:09:32;13.03;;;11.70;;
3297;SDS011;1661;53.572;10.174;2023-08-30T05:12:01;13.47;;;10.80;;
3297;SDS011;1661;53.572;10.174;2023-08-30T05:14:28;13.93;;;11.87;;
3297;SDS011;1661;53.572;10.174;2023-08-30T05:16:55;13.20;;;11.83;;
3297;SDS011;1661;53.572;10.174;2023-08-30T05:19:21;17.30;;;12.07;;
3297;SDS011;1661;53.572;10.174;2023-08-30T05:21:48;13.53;;;12.17;;
3297;SDS011;1661;53.572;10.174;2023-08-30T05:24:16;11.60;;;10.03;;
3297;SDS011;1661;53.572;10.174;2023-08-30T05:26:43;11.53;;;10.43;;
3297;SDS011;1661;53.572;10.174;2023-08-30T05:29:13;10.30;;;9.30;;
3297;SDS011;1661;53.572;10.174;2023-08-30T05:31:40;12.83;;;11.60;;
3297;SDS011;1661;53.572;10.174;2023-08-30T05:34:07;10.47;;;9.40;;
3297;SDS011;1661;53.572;10.174;2023-08-30T05:36:33;8.63;;;7.93;;
3297;SDS011;1661;53.572;10.174;2023-08-30T05:39:00;9.43;;;8.30;;
3297;SDS011;1661;53.572;10.174;2023-08-30T05:41:28;9.80;;;8.97;;
3297;SDS011;1661;53.572;10.174;2023-08-30T05:43:55;11.07;;;9.40;;
3297;SDS011;1661;53.572;10.174;2023-08-30T05:46:23;19.33;;;10.17;;
3297;SDS011;1661;53.572;10.174;2023-08-30T05:48:50;11.03;;;9.97;;
3297;SDS011;1661;53.572;10.174;2023-08-30T05:51:16;9.30;;;8.30;;
3297;SDS011;1661;53.572;10.174;2023-08-30T05:53:45;9.17;;;8.40;;
3297;SDS011;1661;53.572;10.174;2023-08-30T05:56:11;10.83;;;9.80;;
3297;SDS011;1661;53.572;10.174;2023-08-30T05:58:38;10.10;;;9.10;;
3297;SDS011;1661;53.572;10.174;2023-08-30T06:01:05;8.90;;;8.13;;
3297;SDS011;1661;53.572;10.174;2023-08-30T06:03:34;11.90;;;9.40;;
3297;SDS011;1661;53.572;10.174;2023-08-30T06:06:01;11.90;;;10.70;;
3297;SDS011;1661;53.572;10.174;2023-08-30T06:08:28;9.90;;;9.00;;
3297;SDS011;1661;53.572;10.174;2023-08-30T06:10:55;11.80;;;8.30;;
3297;SDS011;1661;53.572;10.174;2023-08-30T06:13:22;11.40;;;8.97;;
3297;SDS011;1661;53.572;10.174;2023-08-30T06:15:50;8.47;;;7.80;;
3297;SDS011;1661;53.572;10.174;2023-08-30T06:18:17;10.03;;;9.17;;
3297;SDS011;1661;53.572;10.174;2023-08-30T06:20:45;9.77;;;8.70;;
3297;SDS011;1661;53.572;10.174;2023-08-30T06:23:13;10.23;;;9.30;;
3297;SDS011;1661;53.572;10.174;2023-08-30T06:25:40;11.80;;;10.70;;
3297;SDS011;1661;53.572;10.174;2023-08-30T06:28:07;10.87;;;9.77;;
3297;SDS011;1661;53.572;10.174;2023-08-30T06:30:34;10.33;;;9.23;;
3297;SDS011;1661;53.572;10.174;2023-08-30T06:33:01;9.10;;;8.20;;
3297;SDS011;1661;53.572;10.174;2023-08-30T06:35:28;9.13;;;8.00;;
3297;SDS011;1661;53.572;10.174;2023-08-30T06:37:56;9.57;;;8.77;;
3297;SDS011;1661;53.572;10.174;2023-08-30T06:40:23;9.43;;;8.57;;
3297;SDS011;1661;53.572;10.174;2023-08-30T06:42:50;16.60;;;10.00;;
3297;SDS011;1661;53.572;10.174;2023-08-30T06:45:17;9.83;;;8.90;;
3297;SDS011;1661;53.572;10.174;2023-08-30T06:47:44;9.03;;;8.10;;
3297;SDS011;1661;53.572;10.174;2023-08-30T06:50:10;9.17;;;8.27;;
3297;SDS011;1661;53.572;10.174;2023-08-30T06:52:37;8.60;;;7.90;;
3297;SDS011;1661;53.572;10.174;2023-08-30T06:55:05;9.00;;;8.00;;
3297;SDS011;1661;53.572;10.174;2023-08-30T06:57:33;8.53;;;7.67;;
3297;SDS011;1661;53.572;10.174;2023-08-30T06:59:59;9.63;;;8.77;;
3297;SDS011;1661;53.572;10.174;2023-08-30T07:02:32;9.53;;;8.63;;
3297;SDS011;1661;53.572;10.174;2023-08-30T07:05:00;8.60;;;7.13;;
3297;SDS011;1661;53.572;10.174;2023-08-30T07:07:29;8.17;;;6.80;;
3297;SDS011;1661;53.572;10.174;2023-08-30T07:09:56;10.20;;;9.30;;
3297;SDS011;1661;53.572;10.174;2023-08-30T07:12:24;9.73;;;8.73;;
3297;SDS011;1661;53.572;10.174;2023-08-30T07:14:52;8.70;;;7.90;;
3297;SDS011;1661;53.572;10.174;2023-08-30T07:17:18;8.73;;;8.00;;
3297;SDS011;1661;53.572;10.174;2023-08-30T07:19:45;7.40;;;6.70;;
3297;SDS011;1661;53.572;10.174;2023-08-30T07:22:12;8.57;;;7.57;;
3297;SDS011;1661;53.572;10.174;2023-08-30T07:24:41;9.97;;;8.40;;
3297;SDS011;1661;53.572;10.174;2023-08-30T07:27:08;8.53;;;6.90;;
3297;SDS011;1661;53.572;10.174;2023-08-30T07:29:37;9.90;;;7.10;;
3297;SDS011;1661;53.572;10.174;2023-08-30T07:32:05;7.47;;;6.87;;
3297;SDS011;1661;53.572;10.174;2023-08-30T07:34:32;9.00;;;6.57;;
3297;SDS011;1661;53.572;10.174;2023-08-30T07:36:59;7.53;;;7.03;;
3297;SDS011;1661;53.572;10.174;2023-08-30T07:39:25;8.47;;;7.57;;
3297;SDS011;1661;53.572;10.174;2023-08-30T07:41:51;11.60;;;9.10;;
3297;SDS011;1661;53.572;10.174;2023-08-30T07:44:18;10.27;;;9.03;;
3297;SDS011;1661;53.572;10.174;2023-08-30T07:46:47;9.07;;;7.40;;
3297;SDS011;1661;53.572;10.174;2023-08-30T07:49:14;12.00;;;9.57;;
3297;SDS011;1661;53.572;10.174;2023-08-30T07:51:40;8.77;;;6.30;;
3297;SDS011;1661;53.572;10.174;2023-08-30T07:54:07;8.80;;;8.10;;
3297;SDS011;1661;53.572;10.174;2023-08-30T07:56:34;10.70;;;7.00;;
3297;SDS011;1661;53.572;10.174;2023-08-30T07:59:01;9.20;;;6.80;;
3297;SDS011;1661;53.572;10.174;2023-08-30T08:01:28;9.07;;;7.50;;
3297;SDS011;1661;53.572;10.174;2023-08-30T08:03:56;8.50;;;7.37;;
3297;SDS011;1661;53.572;10.174;2023-08-30T08:06:23;10.20;;;8.30;;
3297;SDS011;1661;53.572;10.174;2023-08-30T08:08:50;12.23;;;8.00;;
3297;SDS011;1661;53.572;10.174;2023-08-30T08:11:16;14.10;;;9.10;;
3297;SDS011;1661;53.572;10.174;2023-08-30T08:13:43;15.07;;;8.93;;
3297;SDS011;1661;53.572;10.174;2023-08-30T08:16:10;7.77;;;7.17;;
3297;SDS011;1661;53.572;10.174;2023-08-30T08:18:37;10.20;;;8.60;;
3297;SDS011;1661;53.572;10.174;2023-08-30T08:21:05;17.00;;;10.23;;
3297;SDS011;1661;53.572;10.174;2023-08-30T08:23:32;9.43;;;8.63;;
3297;SDS011;1661;53.572;10.174;2023-08-30T08:25:59;12.67;;;8.80;;
3297;SDS011;1661;53.572;10.174;2023-08-30T08:28:27;13.60;;;9.17;;
3297;SDS011;1661;53.572;10.174;2023-08-30T08:30:54;14.53;;;9.80;;
3297;SDS011;1661;53.572;10.174;2023-08-30T08:33:21;9.50;;;8.37;;
3297;SDS011;1661;53.572;10.174;2023-08-30T08:35:49;9.27;;;8.47;;
3297;SDS011;1661;53.572;10.174;2023-08-30T08:38:17;10.30;;;8.33;;
3297;SDS011;1661;53.572;10.174;2023-08-30T08:40:44;15.27;;;9.67;;
3297;SDS011;1661;53.572;10.174;2023-08-30T08:43:10;11.00;;;9.90;;
3297;SDS011;1661;53.572;10.174;2023-08-30T08:45:38;14.00;;;10.73;;
3297;SDS011;1661;53.572;10.174;2023-08-30T08:48:05;13.33;;;8.47;;
3297;SDS011;1661;53.572;10.174;2023-08-30T08:50:32;12.47;;;8.87;;
3297;SDS011;1661;53.572;10.174;2023-08-30T08:53:00;12.30;;;8.57;;
3297;SDS011;1661;53.572;10.174;2023-08-30T08:55:30;9.50;;;8.60;;
3297;SDS011;1661;53.572;10.174;2023-08-30T08:57:58;14.87;;;9.40;;
3297;SDS011;1661;53.572;10.174;2023-08-30T09:00:24;12.17;;;7.90;;
3297;SDS011;1661;53.572;10.174;2023-08-30T09:02:52;12.03;;;8.27;;
3297;SDS011;1661;53.572;10.174;2023-08-30T09:05:20;9.63;;;8.00;;
3297;SDS011;1661;53.572;10.174;2023-08-30T09:07:47;12.17;;;10.97;;
3297;SDS011;1661;53.572;10.174;2023-08-30T09:10:18;13.07;;;10.50;;
3297;SDS011;1661;53.572;10.174;2023-08-30T09:12:47;9.20;;;8.30;;
3297;SDS011;1661;53.572;10.174;2023-08-30T09:15:14;8.53;;;7.93;;
3297;SDS011;1661;53.572;10.174;2023-08-30T09:17:41;7.53;;;6.73;;
3297;SDS011;1661;53.572;10.174;2023-08-30T09:20:09;9.03;;;8.10;;
3297;SDS011;1661;53.572;10.174;2023-08-30T09:22:37;12.37;;;11.03;;
3297;SDS011;1661;53.572;10.174;2023-08-30T09:25:08;8.43;;;7.63;;
3297;SDS011;1661;53.572;10.174;2023-08-30T09:27:36;11.77;;;10.67;;
3297;SDS011;1661;53.572;10.174;2023-08-30T09:30:08;11.87;;;10.63;;
3297;SDS011;1661;53.572;10.174;2023-08-30T09:32:39;13.30;;;12.10;;
3297;SDS011;1661;53.572;10.174;2023-08-30T09:35:08;11.77;;;10.60;;
3297;SDS011;1661;53.572;10.174;2023-08-30T09:37:35;15.13;;;11.10;;
3297;SDS011;1661;53.572;10.174;2023-08-30T09:40:02;11.00;;;10.10;;
3297;SDS011;1661;53.572;10.174;2023-08-30T09:42:30;12.77;;;7.87;;
3297;SDS011;1661;53.572;10.174;2023-08-30T09:44:57;8.50;;;7.80;;
3297;SDS011;1661;53.572;10.174;2023-08-30T09:47:25;8.60;;;7.70;;
3297;SDS011;1661;53.572;10.174;2023-08-30T09:49:54;12.77;;;8.10;;
3297;SDS011;1661;53.572;10.174;2023-08-30T09:52:23;10.63;;;6.57;;
3297;SDS011;1661;53.572;10.174;2023-08-30T09:54:51;7.37;;;6.67;;
3297;SDS011;1661;53.572;10.174;2023-08-30T09:57:18;9.90;;;6.67;;
3297;SDS011;1661;53.572;10.174;2023-08-30T09:59:47;8.63;;;6.20;;
3297;SDS011;1661;53.572;10.174;2023-08-30T10:02:15;7.70;;;6.70;;
3297;SDS011;1661;53.572;10.174;2023-08-30T10:04:44;7.80;;;6.50;;
3297;SDS011;1661;53.572;10.174;2023-08-30T10:07:12;12.97;;;8.13;;
3297;SDS011;1661;53.572;10.174;2023-08-30T10:09:39;6.73;;;5.70;;
3297;SDS011;1661;53.572;10.174;2023-08-30T10:12:07;10.10;;;6.70;;
3297;SDS011;1661;53.572;10.174;2023-08-30T10:14:36;9.47;;;6.97;;
3297;SDS011;1661;53.572;10.174;2023-08-30T10:17:03;12.30;;;6.90;;
3297;SDS011;1661;53.572;10.174;2023-08-30T10:19:33;7.53;;;6.90;;
3297;SDS011;1661;53.572;10.174;2023-08-30T10:22:05;7.57;;;6.80;;
3297;SDS011;1661;53.572;10.174;2023-08-30T10:24:35;14.13;;;7.97;;
3297;SDS011;1661;53.572;10.174;2023-08-30T10:27:05;11.63;;;7.17;;
3297;SDS011;1661;53.572;10.174;2023-08-30T10:29:34;6.87;;;6.30;;
3297;SDS011;1661;53.572;10.174;2023-08-30T10:32:03;10.80;;;7.27;;
3297;SDS011;1661;53.572;10.174;2023-08-30T10:34:31;10.43;;;8.30;;
3297;SDS011;1661;53.572;10.174;2023-08-30T10:36:59;12.10;;;8.27;;
3297;SDS011;1661;53.572;10.174;2023-08-30T10:39:32;7.40;;;6.10;;
3297;SDS011;1661;53.572;10.174;2023-08-30T10:42:01;7.97;;;7.20;;
3297;SDS011;1661;53.572;10.174;2023-08-30T10:44:33;8.00;;;6.43;;
3297;SDS011;1661;53.572;10.174;2023-08-30T10:47:01;6.03;;;5.63;;
3297;SDS011;1661;53.572;10.174;2023-08-30T10:49:29;5.80;;;5.10;;
3297;SDS011;1661;53.572;10.174;2023-08-30T10:52:05;11.80;;;6.10;;
3297;SDS011;1661;53.572;10.174;2023-08-30T10:54:39;6.67;;;5.10;;
3297;SDS011;1661;53.572;10.174;2023-08-30T10:57:12;6.27;;;4.70;;
3297;SDS011;1661;53.572;10.174;2023-08-30T10:59:39;5.73;;;5.20;;
3297;SDS011;1661;53.572;10.174;2023-08-30T11:02:06;5.73;;;5.00;;
3297;SDS011;1661;53.572;10.174;2023-08-30T11:04:34;6.90;;;5.07;;
3297;SDS011;1661;53.572;10.174;2023-08-30T11:07:07;6.07;;;4.80;;
3297;SDS011;1661;53.572;10.174;2023-08-30T11:09:36;9.00;;;6.57;;
3297;SDS011;1661;53.572;10.174;2023-08-30T11:12:06;4.23;;;3.87;;
3297;SDS011;1661;53.572;10.174;2023-08-30T11:14:32;9.53;;;6.00;;
3297;SDS011;1661;53.572;10.174;2023-08-30T11:16:59;6.30;;;5.70;;
3297;SDS011;1661;53.572;10.174;2023-08-30T11:19:29;14.17;;;6.33;;
3297;SDS011;1661;53.572;10.174;2023-08-30T11:21:56;8.03;;;4.60;;
3297;SDS011;1661;53.572;10.174;2023-08-30T11:24:23;8.53;;;6.43;;
3297;SDS011;1661;53.572;10.174;2023-08-30T11:26:53;7.40;;;5.50;;
3297;SDS011;1661;53.572;10.174;2023-08-30T11:29:20;8.13;;;6.43;;
3297;SDS011;1661;53.572;10.174;2023-08-30T11:31:47;8.77;;;5.20;;
3297;SDS011;1661;53.572;10.174;2023-08-30T11:34:15;4.77;;;4.37;;
3297;SDS011;1661;53.572;10.174;2023-08-30T11:36:47;6.87;;;4.80;;
3297;SDS011;1661;53.572;10.174;2023-08-30T11:39:15;4.90;;;4.43;;
3297;SDS011;1661;53.572;10.174;2023-08-30T11:41:42;5.70;;;4.33;;
3297;SDS011;1661;53.572;10.174;2023-08-30T11:44:11;9.90;;;5.13;;
3297;SDS011;1661;53.572;10.174;2023-08-30T11:46:39;5.40;;;4.00;;
3297;SDS011;1661;53.572;10.174;2023-08-30T11:49:05;5.00;;;3.97;;
3297;SDS011;1661;53.572;10.174;2023-08-30T11:51:32;7.10;;;4.43;;
3297;SDS011;1661;53.572;10.174;2023-08-30T11:53:59;5.00;;;4.50;;
3297;SDS011;1661;53.572;10.174;2023-08-30T11:56:28;7.47;;;4.50;;
3297;SDS011;1661;53.572;10.174;2023-08-30T11:58:55;8.67;;;4.90;;
3297;SDS011;1661;53.572;10.174;2023-08-30T12:01:23;7.17;;;4.40;;
3297;SDS011;1661;53.572;10.174;2023-08-30T12:03:50;3.83;;;3.53;;
3297;SDS011;1661;53.572;10.174;2023-08-30T12:06:17;6.30;;;4.83;;
3297;SDS011;1661;53.572;10.174;2023-08-30T12:08:44;4.93;;;4.27;;
3297;SDS011;1661;53.572;10.174;2023-08-30T12:11:17;5.37;;;4.00;;
3297;SDS011;1661;53.572;10.174;2023-08-30T12:13:45;7.13;;;3.53;;
3297;SDS011;1661;53.572;10.174;2023-08-30T12:16:15;5.27;;;4.77;;
3297;SDS011;1661;53.572;10.174;2023-08-30T12:18:44;7.40;;;5.20;;
3297;SDS011;1661;53.572;10.174;2023-08-30T12:21:10;6.67;;;4.93;;
3297;SDS011;1661;53.572;10.174;2023-08-30T12:23:39;6.33;;;4.87;;
3297;SDS011;1661;53.572;10.174;2023-08-30T12:26:06;5.57;;;4.77;;
3297;SDS011;1661;53.572;10.174;2023-08-30T12:28:35;5.20;;;4.40;;
3297;SDS011;1661;53.572;10.174;2023-08-30T12:31:02;13.23;;;4.83;;
3297;SDS011;1661;53.572;10.174;2023-08-30T12:33:30;5.30;;;4.40;;
3297;SDS011;1661;53.572;10.174;2023-08-30T12:35:58;6.50;;;4.43;;
3297;SDS011;1661;53.572;10.174;2023-08-30T12:38:25;4.53;;;4.13;;
3297;SDS011;1661;53.572;10.174;2023-08-30T12:40:53;8.63;;;4.60;;
3297;SDS011;1661;53.572;10.174;2023-08-30T12:43:22;8.60;;;4.87;;
3297;SDS011;1661;53.572;10.174;2023-08-30T12:45:50;6.23;;;3.73;;
3297;SDS011;1661;53.572;10.174;2023-08-30T12:48:17;7.33;;;4.00;;
3297;SDS011;1661;53.572;10.174;2023-08-30T12:50:45;3.90;;;3.33;;
3297;SDS011;1661;53.572;10.174;2023-08-30T12:53:14;5.43;;;4.07;;
3297;SDS011;1661;53.572;10.174;2023-08-30T12:55:42;5.20;;;4.40;;
3297;SDS011;1661;53.572;10.174;2023-08-30T12:58:09;7.70;;;3.93;;
3297;SDS011;1661;53.572;10.174;2023-08-30T13:00:36;6.23;;;4.07;;
3297;SDS011;1661;53.572;10.174;2023-08-30T13:03:03;7.43;;;5.53;;
3297;SDS011;1661;53.572;10.174;2023-08-30T13:05:31;6.57;;;4.80;;
3297;SDS011;1661;53.572;10.174;2023-08-30T13:07:58;5.23;;;4.63;;
3297;SDS011;1661;53.572;10.174;2023-08-30T13:10:26;6.50;;;4.90;;
3297;SDS011;1661;53.572;10.174;2023-08-30T13:12:53;5.07;;;4.13;;
3297;SDS011;1661;53.572;10.174;2023-08-30T13:15:20;6.77;;;5.03;;
3297;SDS011;1661;53.572;10.174;2023-08-30T13:17:47;4.77;;;4.03;;
3297;SDS011;1661;53.572;10.174;2023-08-30T13:20:13;7.60;;;4.90;;
3297;SDS011;1661;53.572;10.174;2023-08-30T13:22:41;14.80;;;5.70;;
3297;SDS011;1661;53.572;10.174;2023-08-30T13:25:07;5.17;;;4.60;;
3297;SDS011;1661;53.572;10.174;2023-08-30T13:27:36;5.30;;;3.80;;
3297;SDS011;1661;53.572;10.174;2023-08-30T13:30:03;5.40;;;4.63;;
3297;SDS011;1661;53.572;10.174;2023-08-30T13:32:31;5.43;;;4.43;;
3297;SDS011;1661;53.572;10.174;2023-08-30T13:34:58;4.50;;;4.20;;
3297;SDS011;1661;53.572;10.174;2023-08-30T13:37:25;4.37;;;4.00;;
3297;SDS011;1661;53.572;10.174;2023-08-30T13:39:52;8.17;;;5.30;;
3297;SDS011;1661;53.572;10.174;2023-08-30T13:42:19;7.90;;;4.73;;
3297;SDS011;1661;53.572;10.174;2023-08-30T13:44:49;3.97;;;3.37;;
3297;SDS011;1661;53.572;10.174;2023-08-30T13:47:17;5.17;;;4.40;;
3297;SDS011;1661;53.572;10.174;2023-08-30T13:49:45;5.30;;;4.30;;
3297;SDS011;1661;53.572;10.174;2023-08-30T13:52:11;5.57;;;4.07;;
3297;SDS011;1661;53.572;10.174;2023-08-30T13:54:38;3.80;;;3.50;;
3297;SDS011;1661;53.572;10.174;2023-08-30T13:57:05;5.67;;;4.13;;
3297;SDS011;1661;53.572;10.174;2023-08-30T13:59:32;12.87;;;4.70;;
3297;SDS011;1661;53.572;10.174;2023-08-30T14:02:03;8.90;;;4.57;;
3297;SDS011;1661;53.572;10.174;2023-08-30T14:04:31;4.97;;;4.57;;
3297;SDS011;1661;53.572;10.174;2023-08-30T14:07:01;14.63;;;4.73;;
3297;SDS011;1661;53.572;10.174;2023-08-30T14:09:28;4.30;;;3.90;;
3297;SDS011;1661;53.572;10.174;2023-08-30T14:11:56;6.20;;;4.50;;
3297;SDS011;1661;53.572;10.174;2023-08-30T14:14:23;4.93;;;3.90;;
3297;SDS011;1661;53.572;10.174;2023-08-30T14:16:50;5.10;;;4.23;;
3297;SDS011;1661;53.572;10.174;2023-08-30T14:19:18;4.10;;;3.13;;
3297;SDS011;1661;53.572;10.174;2023-08-30T14:21:45;5.60;;;4.43;;
3297;SDS011;1661;53.572;10.174;2023-08-30T14:24:11;6.73;;;4.03;;
3297;SDS011;1661;53.572;10.174;2023-08-30T14:26:38;3.97;;;3.67;;
3297;SDS011;1661;53.572;10.174;2023-08-30T14:29:05;4.33;;;3.83;;
3297;SDS011;1661;53.572;10.174;2023-08-30T14:31:32;4.53;;;4.13;;
3297;SDS011;1661;53.572;10.174;2023-08-30T14:33:58;7.27;;;3.83;;
3297;SDS011;1661;53.572;10.174;2023-08-30T14:36:27;6.53;;;4.33;;
3297;SDS011;1661;53.572;10.174;2023-08-30T14:38:54;4.70;;;4.37;;
3297;SDS011;1661;53.572;10.174;2023-08-30T14:41:21;4.17;;;3.80;;
3297;SDS011;1661;53.572;10.174;2023-08-30T14:43:48;5.53;;;4.30;;
3297;SDS011;1661;53.572;10.174;2023-08-30T14:46:14;4.70;;;4.30;;
3297;SDS011;1661;53.572;10.174;2023-08-30T14:48:43;6.70;;;4.17;;
3297;SDS011;1661;53.572;10.174;2023-08-30T14:51:10;6.80;;;4.10;;
3297;SDS011;1661;53.572;10.174;2023-08-30T14:53:38;7.40;;;5.00;;
3297;SDS011;1661;53.572;10.174;2023-08-30T14:56:05;4.30;;;3.60;;
3297;SDS011;1661;53.572;10.174;2023-08-30T14:58:36;6.10;;;3.93;;
3297;SDS011;1661;53.572;10.174;2023-08-30T15:01:03;5.47;;;4.10;;